Time;durP1;ratioP1;P1;durP2;ratioP2;P2;SDS_P1;SDS_P2;PMS_P1;PMS_P2;Temp;Humidity;BMP_temperature;BMP_pressure;BME280_temperature;BME280_humidity;BME280_pressure;Samples;Min_cycle;Max_cycle;Signal;HPM_P1;HPM_P2
2023/08/30 00:00:47;;;;;;;7.45;3.47;;;;;;;;;;5080144;28;20304;-75
2023/08/30 00:03:13;;;;;;;10.48;3.40;;;;;;;;;;5074820;28;20202;-74
2023/08/30 00:05:40;;;;;;;9.27;3.70;;;;;;;;;;5055730;28;20035;-76
2023/08/30 00:08:06;;;;;;;7.60;3.50;;;;;;;;;;5071069;28;20111;-77
2023/08/30 00:10:31;;;;;;;6.57;3.60;;;;;;;;;;5072077;28;20028;-74
2023/08/30 00:12:57;;;;;;;7.28;3.63;;;;;;;;;;5075254;28;20221;-76
2023/08/30 00:15:22;;;;;;;6.85;3.50;;;;;;;;;;5055902;28;20538;-75
2023/08/30 00:17:48;;;;;;;7.82;3.47;;;;;;;;;;5039781;28;20037;-75
2023/08/30 00:20:13;;;;;;;6.70;3.70;;;;;;;;;;5055059;28;20554;-73
2023/08/30 00:22:39;;;;;;;9.88;4.13;;;;;;;;;;5059197;28;20104;-74
2023/08/30 00:25:05;;;;;;;6.90;3.85;;;;;;;;;;5060828;28;20476;-74
2023/08/30 00:27:30;;;;;;;6.80;3.50;;;;;;;;;;5080332;28;20232;-79
2023/08/30 00:29:55;;;;;;;7.65;3.50;;;;;;;;;;5082927;28;20035;-74
2023/08/30 00:32:21;;;;;;;6.50;3.50;;;;;;;;;;5080354;28;20037;-74
2023/08/30 00:34:50;;;;;;;7.03;3.25;;;;;;;;;;5068324;28;20051;-74
2023/08/30 00:37:15;;;;;;;6.82;3.50;;;;;;;;;;5069810;28;20071;-74
2023/08/30 00:39:40;;;;;;;8.00;3.55;;;;;;;;;;5071769;28;20028;-75
2023/08/30 00:42:07;;;;;;;5.35;3.40;;;;;;;;;;5070868;28;20032;-75
2023/08/30 00:44:33;;;;;;;5.40;3.30;;;;;;;;;;5071190;28;20025;-74
2023/08/30 00:47:02;;;;;;;5.82;3.45;;;;;;;;;;5065447;28;20545;-75
2023/08/30 00:49:31;;;;;;;5.78;3.22;;;;;;;;;;5071292;28;20028;-75
2023/08/30 00:51:57;;;;;;;6.72;3.30;;;;;;;;;;5070678;28;20500;-78
2023/08/30 00:54:23;;;;;;;7.75;3.75;;;;;;;;;;5070243;28;20038;-77
2023/08/30 00:56:48;;;;;;;6.05;3.40;;;;;;;;;;5044231;28;20087;-79
2023/08/30 00:59:14;;;;;;;5.85;3.25;;;;;;;;;;5057462;28;20033;-77
2023/08/30 01:01:40;;;;;;;6.72;3.20;;;;;;;;;;5072371;28;20581;-75
2023/08/30 01:04:05;;;;;;;8.63;3.33;;;;;;;;;;5076000;28;20083;-76
2023/08/30 01:06:31;;;;;;;5.10;3.08;;;;;;;;;;5054820;28;20461;-75
2023/08/30 01:08:56;;;;;;;6.13;3.30;;;;;;;;;;5052124;28;20043;-75
2023/08/30 01:11:34;;;;;;;7.32;3.08;;;;;;;;;;5061371;28;20071;-75
2023/08/30 01:14:13;;;;;;;6.22;3.20;;;;;;;;;;5057032;28;20037;-75
2023/08/30 01:16:38;;;;;;;5.93;3.00;;;;;;;;;;5050054;28;20539;-76
2023/08/30 01:19:26;;;;;;;6.35;3.20;;;;;;;;;;5035245;28;20064;-74
2023/08/30 01:22:11;;;;;;;6.68;2.90;;;;;;;;;;5052999;28;20067;-75
2023/08/30 01:25:14;;;;;;;5.38;3.05;;;;;;;;;;5047501;28;20087;-75
2023/08/30 01:27:40;;;;;;;6.85;3.35;;;;;;;;;;5053819;28;20045;-76
2023/08/30 01:30:08;;;;;;;6.47;3.05;;;;;;;;;;5059288;28;20236;-75
2023/08/30 01:32:35;;;;;;;5.25;3.13;;;;;;;;;;5037433;28;20027;-75
2023/08/30 01:35:02;;;;;;;6.25;3.15;;;;;;;;;;5042337;28;20100;-76
2023/08/30 01:37:27;;;;;;;4.63;2.72;;;;;;;;;;5063432;28;20028;-82
2023/08/30 01:39:56;;;;;;;6.28;3.20;;;;;;;;;;5066557;28;20336;-75
2023/08/30 01:42:22;;;;;;;4.47;2.85;;;;;;;;;;5066066;28;20040;-74
2023/08/30 01:44:50;;;;;;;4.68;3.17;;;;;;;;;;5056841;28;20038;-77
2023/08/30 01:47:16;;;;;;;5.78;3.08;;;;;;;;;;5035664;28;20025;-75
2023/08/30 01:49:42;;;;;;;6.20;3.10;;;;;;;;;;5059339;28;20029;-76
2023/08/30 01:52:10;;;;;;;7.97;3.10;;;;;;;;;;5057751;28;20040;-75
2023/08/30 01:54:37;;;;;;;6.05;3.00;;;;;;;;;;5048922;28;20505;-76
2023/08/30 01:57:03;;;;;;;6.00;3.00;;;;;;;;;;5053301;28;20060;-75
2023/08/30 01:59:29;;;;;;;5.90;3.00;;;;;;;;;;5054300;28;20059;-77
2023/08/30 02:01:55;;;;;;;5.45;3.00;;;;;;;;;;5052799;28;20037;-75
2023/08/30 02:04:20;;;;;;;7.43;3.20;;;;;;;;;;5058524;28;20025;-74
2023/08/30 02:06:59;;;;;;;5.07;3.03;;;;;;;;;;5037310;28;20037;-74
2023/08/30 02:09:29;;;;;;;6.43;2.90;;;;;;;;;;5053530;28;20033;-81
2023/08/30 02:11:56;;;;;;;4.90;2.88;;;;;;;;;;5063283;28;20041;-76
2023/08/30 02:14:25;;;;;;;5.80;3.00;;;;;;;;;;5058248;28;20036;-75
2023/08/30 02:16:51;;;;;;;6.85;2.75;;;;;;;;;;5055515;28;20020;-75
2023/08/30 02:19:20;;;;;;;5.95;2.83;;;;;;;;;;5056223;28;20395;-75
2023/08/30 02:21:46;;;;;;;4.28;2.80;;;;;;;;;;5054818;28;20082;-76
2023/08/30 02:24:11;;;;;;;6.15;3.03;;;;;;;;;;5053428;28;20235;-74
2023/08/30 02:26:36;;;;;;;5.25;2.90;;;;;;;;;;5056935;28;20127;-75
2023/08/30 02:29:02;;;;;;;6.38;3.00;;;;;;;;;;5035187;28;20068;-75
2023/08/30 02:31:28;;;;;;;7.13;2.75;;;;;;;;;;5050226;28;20036;-75
2023/08/30 02:33:54;;;;;;;5.38;3.20;;;;;;;;;;5052706;28;20044;-76
2023/08/30 02:36:19;;;;;;;5.05;2.53;;;;;;;;;;5052124;28;20488;-75
2023/08/30 02:38:44;;;;;;;5.38;2.70;;;;;;;;;;5058071;28;20117;-74
2023/08/30 02:41:10;;;;;;;6.25;2.80;;;;;;;;;;5054723;28;20120;-75
2023/08/30 02:43:35;;;;;;;5.80;2.67;;;;;;;;;;5036748;28;20028;-75
2023/08/30 02:46:03;;;;;;;3.72;2.35;;;;;;;;;;5048478;28;20056;-75
2023/08/30 02:48:28;;;;;;;9.35;2.75;;;;;;;;;;5057222;28;20025;-75
2023/08/30 02:50:54;;;;;;;5.63;2.78;;;;;;;;;;5053008;28;20035;-75
2023/08/30 02:53:19;;;;;;;4.78;2.70;;;;;;;;;;5054650;28;20028;-74
2023/08/30 02:55:49;;;;;;;5.07;2.70;;;;;;;;;;5052831;28;20029;-74
2023/08/30 02:58:14;;;;;;;4.82;2.70;;;;;;;;;;5059761;28;20111;-74
2023/08/30 03:00:40;;;;;;;5.38;2.83;;;;;;;;;;5055294;28;20117;-74
2023/08/30 03:03:05;;;;;;;4.68;2.50;;;;;;;;;;5041878;28;20036;-74
2023/08/30 03:05:30;;;;;;;4.15;2.40;;;;;;;;;;5055890;28;20049;-75
2023/08/30 03:07:56;;;;;;;5.95;2.45;;;;;;;;;;5054714;28;20111;-74
2023/08/30 03:10:21;;;;;;;5.35;2.33;;;;;;;;;;5050595;28;20060;-75
2023/08/30 03:12:46;;;;;;;5.80;2.70;;;;;;;;;;5056785;28;20112;-75
2023/08/30 03:15:12;;;;;;;6.95;2.78;;;;;;;;;;5055380;28;20040;-74
2023/08/30 03:17:37;;;;;;;6.80;2.47;;;;;;;;;;5059988;28;20033;-74
2023/08/30 03:20:06;;;;;;;6.13;2.58;;;;;;;;;;5057477;28;20036;-75
2023/08/30 03:22:32;;;;;;;6.05;2.40;;;;;;;;;;5055253;28;20051;-75
2023/08/30 03:24:57;;;;;;;6.75;2.60;;;;;;;;;;5041977;28;20465;-75
2023/08/30 03:27:23;;;;;;;4.57;2.40;;;;;;;;;;5057984;28;20116;-75
2023/08/30 03:29:48;;;;;;;4.93;2.63;;;;;;;;;;5053397;28;20466;-74
2023/08/30 03:32:17;;;;;;;4.88;2.35;;;;;;;;;;5055957;28;20056;-75
2023/08/30 03:34:45;;;;;;;5.65;2.50;;;;;;;;;;5058021;28;20057;-78
2023/08/30 03:37:10;;;;;;;6.30;2.88;;;;;;;;;;5059050;28;20025;-75
2023/08/30 03:39:35;;;;;;;6.43;2.65;;;;;;;;;;5057368;28;20036;-75
2023/08/30 03:42:00;;;;;;;4.10;2.40;;;;;;;;;;5056200;28;20036;-74
2023/08/30 03:44:26;;;;;;;4.75;2.58;;;;;;;;;;5063014;28;20413;-74
2023/08/30 03:46:51;;;;;;;3.92;2.40;;;;;;;;;;5059858;28;20024;-76
2023/08/30 03:49:16;;;;;;;6.53;2.60;;;;;;;;;;5057326;28;20838;-74
2023/08/30 03:51:42;;;;;;;7.35;2.53;;;;;;;;;;5030852;28;20033;-75
2023/08/30 03:54:11;;;;;;;4.65;2.38;;;;;;;;;;5056449;28;20036;-74
2023/08/30 03:56:36;;;;;;;4.38;2.53;;;;;;;;;;5036361;28;20029;-74
2023/08/30 03:59:01;;;;;;;8.30;2.55;;;;;;;;;;5056166;28;20029;-74
2023/08/30 04:01:27;;;;;;;7.15;2.88;;;;;;;;;;5055688;28;20024;-74
2023/08/30 04:03:52;;;;;;;5.18;2.50;;;;;;;;;;5054616;28;20020;-74
2023/08/30 04:06:18;;;;;;;6.38;2.60;;;;;;;;;;5052865;28;20464;-74
2023/08/30 04:08:43;;;;;;;5.22;2.58;;;;;;;;;;5040792;28;20663;-75
2023/08/30 04:11:09;;;;;;;7.03;2.85;;;;;;;;;;5052368;28;20037;-74
2023/08/30 04:13:35;;;;;;;5.00;2.50;;;;;;;;;;5062779;28;20094;-74
2023/08/30 04:16:00;;;;;;;5.93;2.65;;;;;;;;;;5060486;28;20631;-74
2023/08/30 04:18:25;;;;;;;5.55;2.55;;;;;;;;;;5059533;28;20052;-74
2023/08/30 04:20:51;;;;;;;6.85;2.85;;;;;;;;;;5056761;28;20540;-75
2023/08/30 04:23:16;;;;;;;6.78;2.60;;;;;;;;;;5034797;28;20118;-74
2023/08/30 04:25:43;;;;;;;5.88;2.92;;;;;;;;;;5061527;28;20696;-74
2023/08/30 04:28:09;;;;;;;4.15;2.50;;;;;;;;;;5056350;28;20044;-74
2023/08/30 04:30:37;;;;;;;4.40;2.58;;;;;;;;;;5056265;28;20037;-74
2023/08/30 04:33:03;;;;;;;5.55;2.70;;;;;;;;;;5056603;28;20024;-74
2023/08/30 04:35:29;;;;;;;5.95;2.97;;;;;;;;;;5038025;28;20426;-74
2023/08/30 04:37:55;;;;;;;6.07;2.67;;;;;;;;;;5058961;28;20033;-74
2023/08/30 04:40:20;;;;;;;5.20;2.80;;;;;;;;;;5060177;28;20036;-76
2023/08/30 04:42:45;;;;;;;5.25;2.70;;;;;;;;;;5053899;28;20032;-74
2023/08/30 04:45:11;;;;;;;6.45;3.50;;;;;;;;;;5056426;28;20071;-74
2023/08/30 04:47:36;;;;;;;6.85;3.08;;;;;;;;;;5051125;28;20029;-74
2023/08/30 04:50:02;;;;;;;5.63;3.17;;;;;;;;;;5034973;28;20116;-73
2023/08/30 04:52:27;;;;;;;8.07;3.40;;;;;;;;;;5054334;28;20112;-75
2023/08/30 04:54:53;;;;;;;6.53;3.55;;;;;;;;;;5061172;28;20052;-74
2023/08/30 04:57:18;;;;;;;5.18;3.10;;;;;;;;;;5056936;28;20064;-74
2023/08/30 04:59:44;;;;;;;9.80;3.60;;;;;;;;;;5057584;28;20031;-75
2023/08/30 05:02:10;;;;;;;7.40;4.00;;;;;;;;;;5050726;28;20104;-73
2023/08/30 05:04:36;;;;;;;6.30;3.78;;;;;;;;;;5059318;28;20116;-73
2023/08/30 05:07:02;;;;;;;5.88;3.50;;;;;;;;;;5054823;28;20103;-73
2023/08/30 05:09:29;;;;;;;7.43;3.67;;;;;;;;;;5054817;28;20025;-77
2023/08/30 05:11:54;;;;;;;7.10;4.10;;;;;;;;;;5054517;28;20377;-77
2023/08/30 05:14:20;;;;;;;12.05;3.90;;;;;;;;;;5053084;28;20024;-74
2023/08/30 05:16:45;;;;;;;8.80;3.90;;;;;;;;;;5056500;28;20025;-75
2023/08/30 05:19:11;;;;;;;7.15;3.90;;;;;;;;;;5056331;28;20035;-76
2023/08/30 05:21:36;;;;;;;6.20;3.53;;;;;;;;;;5050853;28;20025;-73
2023/08/30 05:24:02;;;;;;;6.88;4.03;;;;;;;;;;5058526;28;20024;-73
2023/08/30 05:26:28;;;;;;;8.48;4.00;;;;;;;;;;5054872;28;20029;-73
2023/08/30 05:28:53;;;;;;;7.35;4.18;;;;;;;;;;5054511;28;20048;-75
2023/08/30 05:31:18;;;;;;;8.43;3.67;;;;;;;;;;5051131;28;20068;-77
2023/08/30 05:33:44;;;;;;;12.80;4.60;;;;;;;;;;5060925;28;20020;-73
2023/08/30 05:36:09;;;;;;;12.43;5.28;;;;;;;;;;5057183;28;20162;-74
2023/08/30 05:38:34;;;;;;;10.55;4.93;;;;;;;;;;5056081;28;20024;-73
2023/08/30 05:40:59;;;;;;;11.88;4.63;;;;;;;;;;5053953;28;20032;-73
2023/08/30 05:43:25;;;;;;;6.88;4.20;;;;;;;;;;5051601;28;20021;-73
2023/08/30 05:45:50;;;;;;;9.52;4.00;;;;;;;;;;5049545;28;20033;-73
2023/08/30 05:48:15;;;;;;;7.90;4.10;;;;;;;;;;5053266;28;20143;-74
2023/08/30 05:50:41;;;;;;;9.77;3.97;;;;;;;;;;5040284;28;20511;-77
2023/08/30 05:53:06;;;;;;;10.38;4.40;;;;;;;;;;5041198;28;20111;-73
2023/08/30 05:55:32;;;;;;;9.30;3.75;;;;;;;;;;5069926;28;20048;-73
2023/08/30 05:57:57;;;;;;;9.25;3.50;;;;;;;;;;5054908;28;20043;-73
2023/08/30 06:00:23;;;;;;;14.13;4.20;;;;;;;;;;5053324;28;20640;-73
2023/08/30 06:02:51;;;;;;;8.45;3.65;;;;;;;;;;5059115;28;20103;-73
2023/08/30 06:05:16;;;;;;;12.80;3.53;;;;;;;;;;5055345;28;20032;-73
2023/08/30 06:07:42;;;;;;;7.85;3.53;;;;;;;;;;5053720;28;20173;-74
2023/08/30 06:10:07;;;;;;;6.65;3.38;;;;;;;;;;5057797;28;20091;-73
2023/08/30 06:12:32;;;;;;;11.30;3.38;;;;;;;;;;5056457;28;20034;-75
2023/08/30 06:14:58;;;;;;;7.40;3.25;;;;;;;;;;5053493;28;20028;-73
2023/08/30 06:17:23;;;;;;;8.75;3.25;;;;;;;;;;5053989;28;20033;-73
2023/08/30 06:19:49;;;;;;;6.55;3.05;;;;;;;;;;5048934;28;20043;-73
2023/08/30 06:22:14;;;;;;;5.75;3.13;;;;;;;;;;5058849;28;20032;-78
2023/08/30 06:24:39;;;;;;;6.63;3.10;;;;;;;;;;5055163;28;20075;-73
2023/08/30 06:27:05;;;;;;;7.00;3.30;;;;;;;;;;5053976;28;20416;-74
2023/08/30 06:29:30;;;;;;;6.93;3.15;;;;;;;;;;5032360;28;20052;-74
2023/08/30 06:31:56;;;;;;;9.00;3.25;;;;;;;;;;5053571;28;20061;-73
2023/08/30 06:34:21;;;;;;;6.28;3.20;;;;;;;;;;5054601;28;20048;-73
2023/08/30 06:36:47;;;;;;;6.20;3.10;;;;;;;;;;5052547;28;20055;-76
2023/08/30 06:39:13;;;;;;;6.97;3.30;;;;;;;;;;5052779;28;20463;-74
2023/08/30 06:41:38;;;;;;;8.65;3.30;;;;;;;;;;5059042;28;20024;-73
2023/08/30 06:44:04;;;;;;;7.47;3.20;;;;;;;;;;5055014;28;20091;-73
2023/08/30 06:46:29;;;;;;;5.97;3.47;;;;;;;;;;5053204;28;20066;-73
2023/08/30 06:48:55;;;;;;;11.98;3.63;;;;;;;;;;5051829;28;20604;-75
2023/08/30 06:51:20;;;;;;;6.28;3.70;;;;;;;;;;5047008;28;20606;-73
2023/08/30 06:53:46;;;;;;;6.35;3.30;;;;;;;;;;5052074;28;20040;-77
2023/08/30 06:56:12;;;;;;;6.45;3.50;;;;;;;;;;5050035;28;20028;-77
2023/08/30 06:58:37;;;;;;;8.02;3.70;;;;;;;;;;5054201;28;20086;-76
2023/08/30 07:01:03;;;;;;;8.32;3.67;;;;;;;;;;5051753;28;20031;-75
2023/08/30 07:03:28;;;;;;;6.90;3.55;;;;;;;;;;5058014;28;20033;-73
2023/08/30 07:05:54;;;;;;;6.20;3.58;;;;;;;;;;5052878;28;20044;-76
2023/08/30 07:08:19;;;;;;;9.48;3.70;;;;;;;;;;5053172;28;20032;-74
2023/08/30 07:10:45;;;;;;;6.05;3.40;;;;;;;;;;5038851;28;20385;-75
2023/08/30 07:13:11;;;;;;;7.20;3.40;;;;;;;;;;5051970;28;20082;-74
2023/08/30 07:15:39;;;;;;;4.70;3.13;;;;;;;;;;5057327;28;20028;-73
2023/08/30 07:18:04;;;;;;;7.13;3.30;;;;;;;;;;5054148;28;20089;-74
2023/08/30 07:20:30;;;;;;;6.22;3.10;;;;;;;;;;5052791;28;20501;-75
2023/08/30 07:22:55;;;;;;;8.45;3.30;;;;;;;;;;5050128;28;20596;-74
2023/08/30 07:25:20;;;;;;;5.57;3.20;;;;;;;;;;5051760;28;20533;-73
2023/08/30 07:27:45;;;;;;;5.22;2.97;;;;;;;;;;5053867;28;20609;-75
2023/08/30 07:30:11;;;;;;;5.07;2.83;;;;;;;;;;5053293;28;20025;-74
2023/08/30 07:32:37;;;;;;;5.78;2.90;;;;;;;;;;5051226;28;20025;-74
2023/08/30 07:35:04;;;;;;;6.95;2.92;;;;;;;;;;5059156;28;20390;-73
2023/08/30 07:37:29;;;;;;;4.32;2.90;;;;;;;;;;5051984;28;20040;-74
2023/08/30 07:39:55;;;;;;;5.57;2.70;;;;;;;;;;5053315;28;20585;-74
2023/08/30 07:42:20;;;;;;;6.38;2.67;;;;;;;;;;5053167;28;20137;-73
2023/08/30 07:44:45;;;;;;;6.75;2.60;;;;;;;;;;5055102;28;20075;-73
2023/08/30 07:47:11;;;;;;;6.47;2.75;;;;;;;;;;5033207;28;20029;-76
2023/08/30 07:49:36;;;;;;;6.45;2.47;;;;;;;;;;5052957;28;20035;-72
2023/08/30 07:52:02;;;;;;;6.78;2.67;;;;;;;;;;5051102;28;20582;-73
2023/08/30 07:54:28;;;;;;;4.57;2.38;;;;;;;;;;5056203;28;20025;-73
2023/08/30 07:56:54;;;;;;;5.97;2.42;;;;;;;;;;5055364;28;20028;-74
2023/08/30 07:59:19;;;;;;;3.67;2.10;;;;;;;;;;5054183;28;20515;-73
2023/08/30 08:01:44;;;;;;;5.38;2.17;;;;;;;;;;5062103;28;20488;-73
2023/08/30 08:04:09;;;;;;;4.60;2.20;;;;;;;;;;5052079;28;20021;-72
2023/08/30 08:06:35;;;;;;;4.53;2.20;;;;;;;;;;5053234;28;20392;-73
2023/08/30 08:09:01;;;;;;;5.70;2.40;;;;;;;;;;5056674;28;20033;-74
2023/08/30 08:11:26;;;;;;;4.25;2.28;;;;;;;;;;5055689;28;20589;-73
2023/08/30 08:13:51;;;;;;;9.18;2.25;;;;;;;;;;5060714;28;20112;-73
2023/08/30 08:16:17;;;;;;;3.83;2.17;;;;;;;;;;5059895;28;20472;-73
2023/08/30 08:18:42;;;;;;;3.65;1.95;;;;;;;;;;5054051;28;20032;-72
2023/08/30 08:21:07;;;;;;;5.90;2.15;;;;;;;;;;5063058;28;20473;-74
2023/08/30 08:23:33;;;;;;;3.88;2.00;;;;;;;;;;5051763;28;20032;-74
2023/08/30 08:25:59;;;;;;;5.10;2.17;;;;;;;;;;5057167;28;20078;-74
2023/08/30 08:28:25;;;;;;;5.75;2.05;;;;;;;;;;5033245;28;20451;-74
2023/08/30 08:30:51;;;;;;;4.47;2.00;;;;;;;;;;5052635;28;20037;-74
2023/08/30 08:33:17;;;;;;;4.18;1.88;;;;;;;;;;5050643;28;20086;-73
2023/08/30 08:35:43;;;;;;;4.78;2.05;;;;;;;;;;5054142;28;20586;-73
2023/08/30 08:38:09;;;;;;;4.15;1.90;;;;;;;;;;5058436;28;20044;-75
2023/08/30 08:40:39;;;;;;;4.88;2.20;;;;;;;;;;5055968;28;20078;-72
2023/08/30 08:43:05;;;;;;;4.43;2.00;;;;;;;;;;5048956;28;20469;-73
2023/08/30 08:45:34;;;;;;;5.88;1.90;;;;;;;;;;5056794;28;20459;-74
2023/08/30 08:48:01;;;;;;;5.72;1.98;;;;;;;;;;5055677;28;20020;-73
2023/08/30 08:50:29;;;;;;;5.93;1.98;;;;;;;;;;5054147;28;20025;-73
2023/08/30 08:52:55;;;;;;;4.88;1.80;;;;;;;;;;5048612;28;20118;-72
2023/08/30 08:55:21;;;;;;;2.90;1.70;;;;;;;;;;5057959;28;20025;-73
2023/08/30 08:57:46;;;;;;;4.88;1.90;;;;;;;;;;5057207;28;20037;-73
2023/08/30 09:00:13;;;;;;;3.35;1.80;;;;;;;;;;5051325;28;20039;-75
2023/08/30 09:02:40;;;;;;;6.07;1.67;;;;;;;;;;5054903;28;20025;-73
2023/08/30 09:05:07;;;;;;;3.35;1.70;;;;;;;;;;5071117;28;20016;-75
2023/08/30 09:07:32;;;;;;;4.72;1.95;;;;;;;;;;5063658;28;20033;-74
2023/08/30 09:09:58;;;;;;;4.57;1.83;;;;;;;;;;5057470;28;20151;-73
2023/08/30 09:12:24;;;;;;;6.00;1.80;;;;;;;;;;5053213;28;20033;-73
2023/08/30 09:14:56;;;;;;;6.68;2.00;;;;;;;;;;5052171;28;20379;-73
2023/08/30 09:17:21;;;;;;;2.95;1.55;;;;;;;;;;5039808;28;20036;-75
2023/08/30 09:19:47;;;;;;;4.90;1.70;;;;;;;;;;5056123;28;20028;-74
2023/08/30 09:22:12;;;;;;;5.70;1.70;;;;;;;;;;5057487;28;20080;-74
2023/08/30 09:24:41;;;;;;;4.68;1.80;;;;;;;;;;5052973;28;20048;-73
2023/08/30 09:27:07;;;;;;;4.10;1.90;;;;;;;;;;5055119;28;20033;-74
2023/08/30 09:29:32;;;;;;;3.97;1.80;;;;;;;;;;5035950;28;20045;-73
2023/08/30 09:31:58;;;;;;;4.78;1.88;;;;;;;;;;5051312;28;20029;-72
2023/08/30 09:34:26;;;;;;;6.40;1.90;;;;;;;;;;5049551;28;20029;-73
2023/08/30 09:36:53;;;;;;;4.65;2.00;;;;;;;;;;5055910;28;20074;-73
2023/08/30 09:39:18;;;;;;;4.63;2.00;;;;;;;;;;5049137;28;20124;-72
2023/08/30 09:41:45;;;;;;;5.18;2.00;;;;;;;;;;5053636;28;20111;-73
2023/08/30 09:44:19;;;;;;;5.88;2.30;;;;;;;;;;5056833;28;20033;-73
2023/08/30 09:46:55;;;;;;;4.05;1.80;;;;;;;;;;5067493;28;20036;-74
2023/08/30 09:49:24;;;;;;;6.75;2.13;;;;;;;;;;5057506;28;20088;-75
2023/08/30 09:51:52;;;;;;;5.60;1.83;;;;;;;;;;5067319;28;20028;-73
2023/08/30 09:54:19;;;;;;;4.55;1.75;;;;;;;;;;5055933;28;20107;-74
2023/08/30 09:56:45;;;;;;;4.85;1.80;;;;;;;;;;5060345;28;20020;-75
2023/08/30 09:59:12;;;;;;;5.15;1.90;;;;;;;;;;5064539;28;20277;-76
2023/08/30 10:01:39;;;;;;;6.68;1.90;;;;;;;;;;5058835;28;20021;-78
2023/08/30 10:04:06;;;;;;;4.93;1.80;;;;;;;;;;5057290;28;20052;-72
2023/08/30 10:06:33;;;;;;;3.92;1.85;;;;;;;;;;5054351;28;20060;-75
2023/08/30 10:08:59;;;;;;;4.78;1.80;;;;;;;;;;5047770;28;20107;-75
2023/08/30 10:11:24;;;;;;;5.50;2.20;;;;;;;;;;5056616;28;20389;-75
2023/08/30 10:13:55;;;;;;;4.45;1.70;;;;;;;;;;5050509;28;20036;-75
2023/08/30 10:16:24;;;;;;;4.07;1.70;;;;;;;;;;5054008;28;20389;-75
2023/08/30 10:18:54;;;;;;;4.88;1.83;;;;;;;;;;5053345;28;20032;-74
2023/08/30 10:21:21;;;;;;;4.40;1.83;;;;;;;;;;5034659;28;20040;-75
2023/08/30 10:23:49;;;;;;;3.20;1.70;;;;;;;;;;5058631;28;20083;-75
2023/08/30 10:26:16;;;;;;;5.05;1.80;;;;;;;;;;5056585;28;20036;-78
2023/08/30 10:28:43;;;;;;;5.35;1.80;;;;;;;;;;5049202;28;20495;-75
2023/08/30 10:31:09;;;;;;;4.20;1.98;;;;;;;;;;5049684;28;20037;-75
2023/08/30 10:34:08;;;;;;;6.30;1.95;;;;;;;;;;5059461;28;20058;-75
2023/08/30 10:36:34;;;;;;;7.22;2.05;;;;;;;;;;5061126;28;20037;-74
2023/08/30 10:38:59;;;;;;;4.85;1.90;;;;;;;;;;5063596;28;20032;-74
2023/08/30 10:41:26;;;;;;;5.95;1.88;;;;;;;;;;5062686;28;20039;-76
2023/08/30 10:43:52;;;;;;;5.78;2.00;;;;;;;;;;5055307;28;20035;-74
2023/08/30 10:46:30;;;;;;;5.50;2.03;;;;;;;;;;5050619;28;20106;-73
2023/08/30 10:48:57;;;;;;;5.20;2.00;;;;;;;;;;5059805;28;20527;-74
2023/08/30 10:51:39;;;;;;;4.38;1.80;;;;;;;;;;5052918;28;20040;-74
2023/08/30 10:54:12;;;;;;;7.75;2.10;;;;;;;;;;5058466;28;20029;-75
2023/08/30 10:56:49;;;;;;;4.65;1.70;;;;;;;;;;5056864;28;20025;-75
2023/08/30 10:59:21;;;;;;;5.28;1.80;;;;;;;;;;5047719;28;20047;-74
2023/08/30 11:01:48;;;;;;;5.55;1.88;;;;;;;;;;5056397;28;20029;-76
2023/08/30 11:04:18;;;;;;;6.68;2.00;;;;;;;;;;5064865;28;20032;-76
2023/08/30 11:06:45;;;;;;;5.35;1.98;;;;;;;;;;5050087;28;20029;-73
2023/08/30 11:09:17;;;;;;;8.13;2.03;;;;;;;;;;5059327;28;20523;-75
2023/08/30 11:11:43;;;;;;;6.82;2.13;;;;;;;;;;5045320;28;20032;-75
2023/08/30 11:14:12;;;;;;;7.50;2.13;;;;;;;;;;5062987;28;20143;-74
2023/08/30 11:16:39;;;;;;;6.25;1.92;;;;;;;;;;5050180;28;20032;-74
2023/08/30 11:19:05;;;;;;;5.72;1.80;;;;;;;;;;5059235;28;20051;-75
2023/08/30 11:21:32;;;;;;;10.95;2.10;;;;;;;;;;5062876;28;20104;-74
2023/08/30 11:23:58;;;;;;;5.22;1.90;;;;;;;;;;5062877;28;20024;-74
2023/08/30 11:26:23;;;;;;;7.03;2.22;;;;;;;;;;5058431;28;20344;-74
2023/08/30 11:28:51;;;;;;;6.50;2.13;;;;;;;;;;5054555;28;20127;-73
2023/08/30 11:31:22;;;;;;;7.68;1.90;;;;;;;;;;5060875;28;20064;-73
2023/08/30 11:33:52;;;;;;;7.00;1.92;;;;;;;;;;5069180;28;20079;-73
2023/08/30 11:36:19;;;;;;;5.95;1.90;;;;;;;;;;5062031;28;20090;-73
2023/08/30 11:38:45;;;;;;;6.03;2.00;;;;;;;;;;5064232;28;20399;-73
2023/08/30 11:41:10;;;;;;;5.65;1.98;;;;;;;;;;5076016;28;20058;-74
2023/08/30 11:43:36;;;;;;;7.47;2.00;;;;;;;;;;5069700;28;20027;-73
2023/08/30 11:46:03;;;;;;;7.70;2.10;;;;;;;;;;5068381;28;20028;-74
2023/08/30 11:48:29;;;;;;;7.63;2.10;;;;;;;;;;5066140;28;20043;-74
2023/08/30 11:50:54;;;;;;;9.35;2.03;;;;;;;;;;5075428;28;20040;-74
2023/08/30 11:53:20;;;;;;;8.40;1.95;;;;;;;;;;5072706;28;20193;-74
2023/08/30 11:55:45;;;;;;;8.48;2.05;;;;;;;;;;5083554;28;20032;-74
2023/08/30 11:58:11;;;;;;;6.90;2.40;;;;;;;;;;5083128;28;20035;-74
2023/08/30 12:00:37;;;;;;;6.97;2.53;;;;;;;;;;5083684;28;20052;-74
2023/08/30 12:03:05;;;;;;;4.53;1.80;;;;;;;;;;5081169;28;20055;-74
2023/08/30 12:05:33;;;;;;;7.85;2.40;;;;;;;;;;5066793;28;20044;-74
2023/08/30 12:08:03;;;;;;;6.43;2.10;;;;;;;;;;5050384;28;20048;-73
2023/08/30 12:10:29;;;;;;;7.22;2.00;;;;;;;;;;5069834;28;20060;-75
2023/08/30 12:12:55;;;;;;;8.02;1.90;;;;;;;;;;5071616;28;20027;-73
2023/08/30 12:15:24;;;;;;;6.55;2.05;;;;;;;;;;5055942;28;20104;-74
2023/08/30 12:17:50;;;;;;;7.03;2.15;;;;;;;;;;5056051;28;20100;-74
2023/08/30 12:20:25;;;;;;;5.47;2.13;;;;;;;;;;5068141;28;20067;-78
2023/08/30 12:22:51;;;;;;;6.55;2.05;;;;;;;;;;5072632;28;20115;-74
2023/08/30 12:25:26;;;;;;;4.38;1.92;;;;;;;;;;5062630;28;20340;-80
2023/08/30 12:27:52;;;;;;;6.10;2.10;;;;;;;;;;5053491;28;20122;-78
2023/08/30 12:30:18;;;;;;;9.25;2.25;;;;;;;;;;5056192;28;20041;-76
2023/08/30 12:32:47;;;;;;;6.85;1.80;;;;;;;;;;5048723;28;20356;-77
2023/08/30 12:35:15;;;;;;;7.13;1.98;;;;;;;;;;5055265;28;20036;-79
2023/08/30 12:37:41;;;;;;;5.60;1.92;;;;;;;;;;5060510;28;20029;-78
2023/08/30 12:40:06;;;;;;;4.40;1.77;;;;;;;;;;5050207;28;20078;-76
2023/08/30 12:42:33;;;;;;;6.80;2.10;;;;;;;;;;5043060;28;20044;-73
2023/08/30 12:44:58;;;;;;;6.93;2.38;;;;;;;;;;5054450;28;20025;-73
2023/08/30 12:47:23;;;;;;;4.03;1.77;;;;;;;;;;5055891;28;20036;-78
2023/08/30 12:49:49;;;;;;;5.10;1.70;;;;;;;;;;5068934;28;20024;-73
2023/08/30 12:52:15;;;;;;;5.30;2.00;;;;;;;;;;5052379;28;20115;-76
2023/08/30 12:54:41;;;;;;;6.15;1.90;;;;;;;;;;5057958;28;20063;-77
2023/08/30 12:57:07;;;;;;;8.10;2.10;;;;;;;;;;5070899;28;20587;-76
2023/08/30 12:59:32;;;;;;;6.78;2.22;;;;;;;;;;5070727;28;20025;-77
2023/08/30 13:01:57;;;;;;;6.05;2.17;;;;;;;;;;5070581;28;20024;-75
2023/08/30 13:04:23;;;;;;;8.82;2.40;;;;;;;;;;5070644;28;20503;-77
2023/08/30 13:06:48;;;;;;;7.72;2.10;;;;;;;;;;5070486;28;20459;-77
2023/08/30 13:09:13;;;;;;;6.05;2.00;;;;;;;;;;5070578;28;20021;-77
2023/08/30 13:11:39;;;;;;;5.88;1.92;;;;;;;;;;5070625;28;20031;-76
2023/08/30 13:14:04;;;;;;;4.95;2.03;;;;;;;;;;5070526;28;20100;-77
2023/08/30 13:16:29;;;;;;;5.32;2.20;;;;;;;;;;5070917;28;20107;-76
2023/08/30 13:18:55;;;;;;;7.63;2.38;;;;;;;;;;5070252;28;20021;-77
2023/08/30 13:21:20;;;;;;;6.00;2.17;;;;;;;;;;5070624;28;20028;-77
2023/08/30 13:23:45;;;;;;;6.00;2.20;;;;;;;;;;5069955;28;20550;-77
2023/08/30 13:26:10;;;;;;;8.85;2.58;;;;;;;;;;5070201;28;20431;-79
2023/08/30 13:28:36;;;;;;;5.72;1.90;;;;;;;;;;5069717;28;21488;-77
2023/08/30 13:31:01;;;;;;;6.82;2.42;;;;;;;;;;5070192;28;20068;-77
2023/08/30 13:33:27;;;;;;;8.20;2.13;;;;;;;;;;5070395;28;20032;-72
2023/08/30 13:35:52;;;;;;;10.10;2.20;;;;;;;;;;5070599;28;20047;-73
2023/08/30 13:38:18;;;;;;;4.85;1.95;;;;;;;;;;5069247;28;20666;-74
2023/08/30 13:40:44;;;;;;;5.55;2.15;;;;;;;;;;5070087;28;20033;-76
2023/08/30 13:43:09;;;;;;;6.30;2.28;;;;;;;;;;5069543;28;20082;-74
2023/08/30 13:45:35;;;;;;;8.75;2.25;;;;;;;;;;5070396;28;20020;-76
2023/08/30 13:48:00;;;;;;;3.85;1.85;;;;;;;;;;5069785;28;20051;-76
2023/08/30 13:50:30;;;;;;;29.42;3.70;;;;;;;;;;5052117;28;20029;-77
2023/08/30 13:52:56;;;;;;;6.22;1.70;;;;;;;;;;5069193;28;20036;-78
2023/08/30 13:55:21;;;;;;;6.53;1.92;;;;;;;;;;5069578;28;20024;-78
2023/08/30 13:57:47;;;;;;;4.80;1.77;;;;;;;;;;5069434;28;20037;-77
2023/08/30 14:00:13;;;;;;;7.75;2.00;;;;;;;;;;5069910;28;20032;-77
2023/08/30 14:02:38;;;;;;;6.25;1.90;;;;;;;;;;5069581;28;20547;-78
2023/08/30 14:05:04;;;;;;;9.10;2.10;;;;;;;;;;5069630;28;20108;-79
2023/08/30 14:07:29;;;;;;;8.52;2.00;;;;;;;;;;5068601;28;20033;-73
2023/08/30 14:09:55;;;;;;;6.00;2.00;;;;;;;;;;5070139;28;20392;-77
2023/08/30 14:12:20;;;;;;;5.93;2.00;;;;;;;;;;5069407;28;20418;-78
2023/08/30 14:14:45;;;;;;;4.63;1.80;;;;;;;;;;5069703;28;20025;-79
2023/08/30 14:17:11;;;;;;;5.25;1.80;;;;;;;;;;5069105;28;20074;-77
2023/08/30 14:19:37;;;;;;;8.15;2.00;;;;;;;;;;5059942;28;20513;-77
2023/08/30 14:22:05;;;;;;;7.78;1.80;;;;;;;;;;5065173;28;20056;-75
2023/08/30 14:24:30;;;;;;;3.30;1.60;;;;;;;;;;5069239;28;20542;-75
2023/08/30 14:26:56;;;;;;;5.40;1.83;;;;;;;;;;5069038;28;20028;-78
2023/08/30 14:29:22;;;;;;;5.63;2.13;;;;;;;;;;5069539;28;20041;-78
2023/08/30 14:31:48;;;;;;;4.80;1.83;;;;;;;;;;5055767;28;20049;-74
2023/08/30 14:34:14;;;;;;;6.68;1.90;;;;;;;;;;5069031;28;20041;-77
2023/08/30 14:36:40;;;;;;;5.20;1.98;;;;;;;;;;5068231;28;20016;-78
2023/08/30 14:39:06;;;;;;;6.63;2.17;;;;;;;;;;5068898;28;20016;-78